Time;durP1;ratioP1;P1;durP2;ratioP2;P2;SDS_P1;SDS_P2;PMS_P1;PMS_P2;Temp;Humidity;BMP_temperature;BMP_pressure;BME280_temperature;BME280_humidity;BME280_pressure;Samples;Min_cycle;Max_cycle;Signal;HPM_P1;HPM_P2
2023/08/30 00:00:41;;;;;;;14.47;12.30;;;15.50;24.00;;;;;;5088730;28;20441;-70
2023/08/30 00:03:07;;;;;;;13.68;12.27;;;15.50;24.50;;;;;;5091055;28;20396;-70
2023/08/30 00:05:33;;;;;;;13.38;12.07;;;15.40;24.50;;;;;;5107260;28;20482;-70
2023/08/30 00:07:58;;;;;;;14.10;12.60;;;15.40;25.00;;;;;;5105743;28;20481;-70
2023/08/30 00:10:24;;;;;;;14.10;12.70;;;15.40;25.70;;;;;;5107111;28;20396;-70
2023/08/30 00:12:50;;;;;;;14.73;13.23;;;15.30;25.90;;;;;;5105582;28;20412;-71
2023/08/30 00:15:16;;;;;;;15.07;13.20;;;15.30;26.20;;;;;;5107011;28;20438;-70
2023/08/30 00:17:42;;;;;;;14.30;12.82;;;15.30;26.90;;;;;;5081564;28;20418;-70
2023/08/30 00:20:08;;;;;;;14.85;13.35;;;15.20;27.10;;;;;;5088039;28;20780;-70
2023/08/30 00:22:35;;;;;;;15.00;13.52;;;15.20;27.20;;;;;;5090168;28;20416;-70
2023/08/30 00:25:01;;;;;;;15.07;13.65;;;15.10;27.50;;;;;;5105483;28;20393;-70
2023/08/30 00:27:27;;;;;;;16.17;14.57;;;15.10;28.40;;;;;;5091678;28;20914;-71
2023/08/30 00:29:52;;;;;;;16.77;15.15;;;15.10;28.80;;;;;;5095389;28;20805;-71
2023/08/30 00:32:18;;;;;;;16.27;14.60;;;15.00;29.00;;;;;;5103456;28;21674;-70
2023/08/30 00:34:44;;;;;;;16.20;14.60;;;15.00;29.30;;;;;;5097164;28;20426;-70
2023/08/30 00:37:09;;;;;;;17.20;15.45;;;15.00;29.70;;;;;;5099779;28;20801;-71
2023/08/30 00:39:38;;;;;;;16.50;14.83;;;15.00;30.10;;;;;;5106418;28;20400;-71
2023/08/30 00:42:07;;;;;;;16.92;15.13;;;15.00;30.40;;;;;;5102867;28;20418;-71
2023/08/30 00:44:35;;;;;;;17.08;15.27;;;14.90;30.90;;;;;;5097956;28;20420;-72
2023/08/30 00:47:02;;;;;;;17.33;15.57;;;14.90;31.00;;;;;;5088559;28;20437;-70
2023/08/30 00:49:31;;;;;;;18.55;16.75;;;14.90;31.50;;;;;;5095946;28;20421;-71
2023/08/30 00:52:06;;;;;;;17.80;16.03;;;14.80;31.90;;;;;;5092738;28;20394;-70
2023/08/30 00:54:31;;;;;;;18.33;16.42;;;14.80;32.00;;;;;;5099807;28;20487;-70
2023/08/30 00:56:57;;;;;;;19.17;17.25;;;14.80;32.60;;;;;;5104675;28;20980;-71
2023/08/30 00:59:24;;;;;;;18.97;17.10;;;14.80;32.90;;;;;;5100508;28;21035;-71
2023/08/30 01:01:50;;;;;;;18.98;17.05;;;14.70;33.30;;;;;;5103480;28;20451;-71
2023/08/30 01:04:16;;;;;;;17.75;15.95;;;14.80;33.80;;;;;;5102416;28;20406;-72
2023/08/30 01:06:42;;;;;;;18.98;16.98;;;14.70;34.10;;;;;;5105314;28;20808;-71
2023/08/30 01:09:09;;;;;;;18.03;16.17;;;14.70;34.90;;;;;;5102190;28;20401;-72
2023/08/30 01:11:37;;;;;;;18.77;16.95;;;14.70;35.20;;;;;;5104046;28;20408;-71
2023/08/30 01:14:10;;;;;;;18.20;16.30;;;14.60;35.20;;;;;;5100118;28;20410;-70
2023/08/30 01:16:36;;;;;;;19.30;17.30;;;14.60;35.70;;;;;;5103920;28;20993;-70
2023/08/30 01:19:18;;;;;;;18.80;16.88;;;14.60;36.10;;;;;;5099360;28;20492;-70
2023/08/30 01:21:52;;;;;;;17.75;15.80;;;14.60;36.50;;;;;;5102706;28;20443;-71
2023/08/30 01:24:31;;;;;;;17.38;15.57;;;14.50;36.10;;;;;;5101963;28;21012;-71
2023/08/30 01:27:13;;;;;;;17.15;15.40;;;14.50;36.50;;;;;;5091036;28;20402;-72
2023/08/30 01:29:42;;;;;;;16.98;15.25;;;14.50;36.70;;;;;;5104956;28;20408;-70
2023/08/30 01:32:09;;;;;;;17.75;15.48;;;14.40;37.20;;;;;;5101663;28;20400;-70
2023/08/30 01:34:38;;;;;;;17.23;15.50;;;14.50;37.50;;;;;;5096714;28;20456;-70
2023/08/30 01:37:07;;;;;;;17.35;15.60;;;14.40;38.10;;;;;;5105687;28;20416;-70
2023/08/30 01:39:34;;;;;;;18.05;16.25;;;14.30;38.70;;;;;;5106700;28;20408;-70
2023/08/30 01:42:01;;;;;;;18.13;16.25;;;14.30;39.00;;;;;;5095509;28;20498;-70
2023/08/30 01:44:28;;;;;;;18.02;16.05;;;14.30;38.90;;;;;;5093879;28;20489;-71
2023/08/30 01:46:56;;;;;;;18.13;16.23;;;14.30;39.40;;;;;;5103091;28;20450;-71
2023/08/30 01:49:22;;;;;;;20.55;17.95;;;14.30;39.50;;;;;;5094518;28;20463;-70
2023/08/30 01:51:49;;;;;;;19.73;17.63;;;14.30;40.80;;;;;;5105714;28;20400;-70
2023/08/30 01:54:18;;;;;;;19.17;17.25;;;14.30;41.70;;;;;;5105151;28;20815;-70
2023/08/30 01:56:47;;;;;;;19.13;17.13;;;14.20;42.50;;;;;;5096248;28;20440;-71
2023/08/30 01:59:13;;;;;;;19.80;17.70;;;14.20;42.40;;;;;;5103175;28;20959;-71
2023/08/30 02:01:39;;;;;;;19.75;17.75;;;14.20;43.10;;;;;;5106586;28;20483;-71
2023/08/30 02:04:04;;;;;;;20.77;18.53;;;14.20;43.70;;;;;;5101513;28;20408;-71
2023/08/30 02:06:48;;;;;;;19.63;17.60;;;14.20;43.90;;;;;;5103967;28;20969;-71
2023/08/30 02:09:35;;;;;;;20.13;17.77;;;14.20;44.80;;;;;;5098359;28;20476;-71
2023/08/30 02:12:03;;;;;;;19.55;17.45;;;14.20;44.00;;;;;;5094679;28;20407;-71
2023/08/30 02:14:30;;;;;;;20.52;18.05;;;14.10;43.60;;;;;;5103844;28;20397;-71
2023/08/30 02:16:56;;;;;;;19.15;17.15;;;14.10;43.70;;;;;;5094030;28;20493;-71
2023/08/30 02:19:22;;;;;;;19.20;17.20;;;14.10;43.60;;;;;;5104242;28;20488;-71
2023/08/30 02:21:48;;;;;;;19.75;17.65;;;14.00;43.60;;;;;;5094180;28;20402;-71
2023/08/30 02:24:14;;;;;;;20.17;18.00;;;14.00;44.00;;;;;;5101109;28;20397;-71
2023/08/30 02:26:40;;;;;;;21.05;18.40;;;14.00;44.30;;;;;;5092225;28;20412;-71
2023/08/30 02:29:05;;;;;;;20.40;17.93;;;14.00;45.00;;;;;;5107833;28;20415;-71
2023/08/30 02:31:31;;;;;;;20.63;18.42;;;13.90;45.30;;;;;;5107071;28;20407;-71
2023/08/30 02:33:57;;;;;;;20.13;18.00;;;13.90;45.50;;;;;;5108655;28;20399;-71
2023/08/30 02:36:22;;;;;;;21.30;19.10;;;13.90;45.30;;;;;;5094899;28;20426;-71
2023/08/30 02:38:49;;;;;;;20.27;18.07;;;13.90;45.50;;;;;;5108925;28;21175;-72
2023/08/30 02:41:14;;;;;;;21.70;18.10;;;13.80;45.30;;;;;;5094849;27;20480;-72
2023/08/30 02:43:40;;;;;;;19.93;17.83;;;13.80;45.60;;;;;;5107496;28;20574;-72
2023/08/30 02:46:06;;;;;;;19.88;17.77;;;13.80;46.50;;;;;;5105576;28;20941;-72
2023/08/30 02:48:34;;;;;;;19.67;17.57;;;13.80;46.20;;;;;;5105663;28;22016;-71
2023/08/30 02:51:00;;;;;;;21.65;18.10;;;13.80;45.80;;;;;;5102881;28;20407;-71
2023/08/30 02:53:25;;;;;;;20.70;18.20;;;13.70;45.40;;;;;;5106416;28;20392;-71
2023/08/30 02:55:51;;;;;;;22.00;18.15;;;13.70;45.10;;;;;;5104076;28;20424;-71
2023/08/30 02:58:16;;;;;;;20.07;18.00;;;13.60;45.70;;;;;;5105488;28;20998;-71
2023/08/30 03:00:42;;;;;;;20.52;18.10;;;13.60;46.40;;;;;;5103786;28;20761;-71
2023/08/30 03:03:08;;;;;;;21.70;18.13;;;13.60;46.20;;;;;;5094742;28;21389;-71
2023/08/30 03:05:33;;;;;;;19.88;17.23;;;13.50;46.20;;;;;;5102658;28;20397;-70
2023/08/30 03:07:59;;;;;;;20.67;18.40;;;13.50;45.60;;;;;;5103626;28;20770;-70
2023/08/30 03:10:25;;;;;;;20.85;18.17;;;13.40;45.20;;;;;;5103376;28;20498;-70
2023/08/30 03:12:51;;;;;;;20.93;17.93;;;13.40;46.40;;;;;;5094433;28;20563;-70
2023/08/30 03:15:16;;;;;;;19.38;17.35;;;13.40;46.80;;;;;;5102923;28;20428;-70
2023/08/30 03:17:42;;;;;;;19.90;17.80;;;13.30;47.20;;;;;;5104157;28;21066;-70
2023/08/30 03:20:08;;;;;;;22.23;17.90;;;13.30;47.10;;;;;;5102399;28;20422;-70
2023/08/30 03:22:33;;;;;;;20.95;17.70;;;13.30;47.40;;;;;;5104119;28;20408;-70
2023/08/30 03:25:00;;;;;;;20.85;17.30;;;13.30;47.10;;;;;;5102005;28;20411;-70
2023/08/30 03:27:26;;;;;;;20.77;17.37;;;13.30;47.10;;;;;;5082186;28;20412;-70
2023/08/30 03:29:51;;;;;;;20.27;17.77;;;13.30;47.40;;;;;;5104874;28;20453;-70
2023/08/30 03:32:18;;;;;;;19.40;17.40;;;13.30;47.80;;;;;;5104643;28;20404;-70
2023/08/30 03:34:47;;;;;;;19.75;17.63;;;13.20;47.30;;;;;;5104450;28;20408;-70
2023/08/30 03:37:16;;;;;;;19.90;17.50;;;13.20;47.40;;;;;;5083120;28;20399;-70
2023/08/30 03:39:41;;;;;;;20.58;17.48;;;13.20;47.10;;;;;;5104324;28;20518;-70
2023/08/30 03:42:07;;;;;;;19.97;17.30;;;13.20;46.90;;;;;;5105209;28;20827;-70
2023/08/30 03:44:33;;;;;;;21.98;17.52;;;13.20;47.20;;;;;;5104028;28;20419;-70
2023/08/30 03:46:58;;;;;;;19.33;17.17;;;13.10;47.10;;;;;;5105904;28;20399;-70
2023/08/30 03:49:24;;;;;;;19.73;16.75;;;13.10;46.90;;;;;;5092300;28;20425;-70
2023/08/30 03:51:50;;;;;;;18.88;16.67;;;13.10;46.90;;;;;;5097661;28;20449;-70
2023/08/30 03:54:18;;;;;;;19.60;15.80;;;13.00;46.50;;;;;;5087779;28;20406;-70
2023/08/30 03:56:44;;;;;;;20.00;16.77;;;13.00;46.30;;;;;;5105989;28;20805;-70
2023/08/30 03:59:11;;;;;;;19.05;15.98;;;12.90;46.10;;;;;;5104818;28;20816;-71
2023/08/30 04:01:37;;;;;;;18.58;16.38;;;12.90;46.60;;;;;;5106495;28;20547;-71
2023/08/30 04:04:03;;;;;;;17.73;15.10;;;12.90;46.90;;;;;;5093461;28;20406;-71
2023/08/30 04:06:29;;;;;;;18.25;15.65;;;12.90;46.50;;;;;;5104294;28;20411;-71
2023/08/30 04:08:54;;;;;;;18.20;15.32;;;12.80;46.50;;;;;;5103736;28;20866;-71
2023/08/30 04:11:20;;;;;;;17.37;14.73;;;12.80;46.90;;;;;;5105816;28;20456;-71
2023/08/30 04:13:46;;;;;;;18.00;15.48;;;12.80;47.10;;;;;;5103956;28;20396;-71
2023/08/30 04:16:11;;;;;;;17.50;14.87;;;12.80;46.80;;;;;;5098401;28;20997;-71
2023/08/30 04:18:37;;;;;;;18.63;15.40;;;12.80;47.00;;;;;;5099702;28;20412;-71
2023/08/30 04:21:06;;;;;;;17.53;14.80;;;12.70;47.30;;;;;;5106224;28;20475;-71
2023/08/30 04:23:31;;;;;;;17.77;15.23;;;12.70;47.40;;;;;;5104166;28;20407;-71
2023/08/30 04:25:57;;;;;;;16.42;14.50;;;12.70;47.80;;;;;;5087408;28;20382;-70
2023/08/30 04:28:23;;;;;;;16.90;14.67;;;12.70;47.40;;;;;;5098955;28;20396;-70
2023/08/30 04:30:48;;;;;;;16.65;14.52;;;12.70;47.10;;;;;;5104408;28;20766;-70
2023/08/30 04:33:14;;;;;;;17.63;14.83;;;12.60;47.50;;;;;;5103191;28;20778;-70
2023/08/30 04:35:39;;;;;;;16.10;14.40;;;12.60;47.70;;;;;;5105430;28;20807;-70
2023/08/30 04:38:05;;;;;;;16.73;14.93;;;12.60;48.30;;;;;;5091853;28;20412;-71
2023/08/30 04:40:32;;;;;;;16.63;14.82;;;12.60;48.30;;;;;;5105774;28;20403;-71
2023/08/30 04:43:00;;;;;;;18.63;15.43;;;12.60;47.90;;;;;;5103944;28;20540;-70
2023/08/30 04:45:26;;;;;;;18.90;16.00;;;12.60;48.10;;;;;;5105009;28;20392;-70
2023/08/30 04:47:52;;;;;;;18.05;15.57;;;12.60;47.90;;;;;;5102104;28;20467;-70
2023/08/30 04:50:18;;;;;;;17.00;15.10;;;12.60;48.30;;;;;;5103995;28;20411;-70
2023/08/30 04:52:44;;;;;;;19.75;16.38;;;12.60;47.90;;;;;;5090779;28;20402;-70
2023/08/30 04:55:10;;;;;;;20.73;16.20;;;12.60;48.10;;;;;;5102912;28;20432;-70
2023/08/30 04:57:35;;;;;;;19.60;15.88;;;12.60;47.60;;;;;;5100841;28;20398;-70
2023/08/30 05:00:04;;;;;;;19.33;15.80;;;12.60;47.50;;;;;;5104199;28;20407;-70
2023/08/30 05:02:30;;;;;;;20.77;16.20;;;12.50;47.70;;;;;;5101460;28;20466;-70
2023/08/30 05:04:56;;;;;;;19.25;16.65;;;12.50;48.40;;;;;;5104266;28;20417;-70
2023/08/30 05:07:21;;;;;;;21.00;16.40;;;12.40;48.10;;;;;;5100617;28;20437;-70
2023/08/30 05:09:47;;;;;;;18.40;15.90;;;12.40;49.30;;;;;;5108048;28;20984;-69
2023/08/30 05:12:13;;;;;;;18.38;15.35;;;12.50;50.80;;;;;;5104369;28;20410;-70
2023/08/30 05:14:40;;;;;;;18.90;16.50;;;12.50;50.80;;;;;;5107911;28;20404;-70
2023/08/30 05:17:06;;;;;;;18.83;16.52;;;12.50;52.30;;;;;;5103103;27;20410;-70
2023/08/30 05:19:32;;;;;;;18.48;15.65;;;12.60;53.30;;;;;;5106648;28;20395;-70
2023/08/30 05:21:57;;;;;;;17.60;14.73;;;12.60;53.10;;;;;;5102255;28;20493;-70
2023/08/30 05:24:23;;;;;;;16.13;14.43;;;12.60;52.70;;;;;;5096762;28;20415;-69
2023/08/30 05:26:49;;;;;;;17.17;14.10;;;12.60;52.20;;;;;;5094743;28;20918;-70
2023/08/30 05:29:15;;;;;;;16.38;14.27;;;12.70;51.90;;;;;;5108587;28;20580;-69
2023/08/30 05:31:41;;;;;;;16.40;13.77;;;12.70;51.30;;;;;;5106472;28;20398;-68
2023/08/30 05:34:07;;;;;;;17.38;14.20;;;12.70;51.10;;;;;;5071665;28;20418;-70
2023/08/30 05:36:32;;;;;;;17.33;14.32;;;12.70;52.00;;;;;;5090513;28;20436;-70
2023/08/30 05:38:58;;;;;;;19.17;13.90;;;12.70;52.30;;;;;;5104564;28;20411;-70
2023/08/30 05:41:23;;;;;;;16.42;13.88;;;12.70;53.00;;;;;;5102907;28;20398;-70
2023/08/30 05:43:49;;;;;;;16.27;13.63;;;12.80;53.60;;;;;;5106119;28;20482;-70
2023/08/30 05:46:15;;;;;;;17.08;13.05;;;12.80;54.20;;;;;;5103511;28;20764;-70
2023/08/30 05:48:41;;;;;;;16.90;14.30;;;12.90;54.40;;;;;;5098327;28;20410;-70
2023/08/30 05:51:07;;;;;;;15.55;13.27;;;13.00;53.50;;;;;;5099463;28;20481;-70
2023/08/30 05:53:32;;;;;;;16.60;12.83;;;13.00;52.70;;;;;;5107269;28;20605;-70
2023/08/30 05:55:58;;;;;;;15.27;13.03;;;13.10;51.60;;;;;;5103146;28;20430;-71
2023/08/30 05:58:24;;;;;;;18.40;12.75;;;13.10;51.80;;;;;;5106290;28;20414;-71
2023/08/30 06:00:49;;;;;;;14.60;12.50;;;13.20;50.50;;;;;;5102353;28;20463;-71
2023/08/30 06:03:15;;;;;;;14.15;12.60;;;13.30;50.30;;;;;;5079730;28;20485;-71
2023/08/30 06:05:42;;;;;;;15.73;12.57;;;13.30;50.00;;;;;;5088166;28;20432;-71
2023/08/30 06:08:08;;;;;;;13.97;12.40;;;13.40;50.00;;;;;;5085274;28;20420;-71
2023/08/30 06:10:34;;;;;;;14.88;12.25;;;13.40;48.30;;;;;;5101629;28;20416;-71
2023/08/30 06:13:00;;;;;;;15.00;13.00;;;13.40;47.30;;;;;;5105417;28;20565;-71
2023/08/30 06:15:26;;;;;;;17.13;12.82;;;13.50;47.80;;;;;;5100426;28;21092;-71
2023/08/30 06:17:52;;;;;;;16.58;12.85;;;13.50;48.10;;;;;;5105565;28;20404;-72
2023/08/30 06:20:17;;;;;;;16.87;12.07;;;13.50;47.10;;;;;;5101073;28;20420;-71
2023/08/30 06:22:43;;;;;;;15.38;12.85;;;13.60;47.80;;;;;;5098495;28;20509;-72
2023/08/30 06:25:09;;;;;;;22.63;13.43;;;13.60;48.20;;;;;;5098222;28;20745;-71
2023/08/30 06:27:43;;;;;;;18.23;12.17;;;13.70;47.50;;;;;;5096854;28;20400;-71
2023/08/30 06:30:10;;;;;;;14.98;12.50;;;13.80;47.90;;;;;;5105431;28;20410;-71
2023/08/30 06:32:36;;;;;;;16.53;12.70;;;13.80;46.20;;;;;;5107789;28;20404;-71
2023/08/30 06:35:02;;;;;;;16.03;12.77;;;13.80;45.80;;;;;;5105007;28;20479;-70
2023/08/30 06:37:28;;;;;;;14.38;12.10;;;13.90;45.60;;;;;;5107386;27;20400;-72
2023/08/30 06:39:53;;;;;;;13.48;11.50;;;13.90;45.40;;;;;;5104531;28;20416;-70
2023/08/30 06:42:19;;;;;;;15.47;12.47;;;14.00;44.90;;;;;;5098922;28;20405;-70
2023/08/30 06:44:45;;;;;;;14.48;12.68;;;14.10;44.40;;;;;;5102224;28;20895;-71
2023/08/30 06:47:10;;;;;;;16.63;12.40;;;14.10;45.30;;;;;;5098428;28;20447;-70
2023/08/30 06:49:36;;;;;;;12.88;11.52;;;14.30;45.30;;;;;;5099933;28;20409;-70
2023/08/30 06:52:03;;;;;;;14.43;12.13;;;14.30;44.80;;;;;;5097170;28;20473;-71
2023/08/30 06:54:32;;;;;;;13.68;11.20;;;14.50;44.40;;;;;;5102134;28;20406;-71
2023/08/30 06:57:01;;;;;;;12.50;10.73;;;14.60;43.20;;;;;;5097227;28;20424;-71
2023/08/30 06:59:27;;;;;;;12.77;10.60;;;14.70;41.00;;;;;;5089908;28;20414;-71
2023/08/30 07:01:53;;;;;;;14.57;10.40;;;14.80;38.20;;;;;;5106195;28;21011;-71
2023/08/30 07:04:18;;;;;;;11.77;9.90;;;14.90;34.30;;;;;;5091093;28;20398;-71
2023/08/30 07:06:44;;;;;;;12.60;10.30;;;15.00;33.60;;;;;;5105323;28;20483;-71
2023/08/30 07:09:11;;;;;;;11.75;9.45;;;15.10;33.00;;;;;;5101245;28;20398;-71
2023/08/30 07:11:38;;;;;;;11.40;9.10;;;15.10;26.10;;;;;;5105553;28;20761;-71
2023/08/30 07:14:04;;;;;;;10.77;9.35;;;15.20;22.40;;;;;;5100885;28;20513;-71
2023/08/30 07:16:31;;;;;;;11.90;9.23;;;15.20;20.70;;;;;;5096967;28;20837;-71
2023/08/30 07:18:57;;;;;;;11.13;9.13;;;15.20;19.30;;;;;;5096406;28;20930;-71
2023/08/30 07:21:23;;;;;;;13.48;9.38;;;15.30;19.60;;;;;;5097144;28;20397;-71
2023/08/30 07:23:49;;;;;;;12.57;9.40;;;15.30;18.10;;;;;;5101168;28;21279;-71
2023/08/30 07:26:14;;;;;;;11.50;9.00;;;15.40;18.20;;;;;;5095881;28;20409;-71
2023/08/30 07:28:40;;;;;;;11.23;9.27;;;15.40;18.10;;;;;;5084861;28;20404;-71
2023/08/30 07:31:06;;;;;;;11.30;9.30;;;15.50;16.90;;;;;;5105680;28;21222;-71
2023/08/30 07:33:32;;;;;;;11.52;9.02;;;15.50;16.20;;;;;;5103186;28;20404;-71
2023/08/30 07:35:58;;;;;;;11.05;8.98;;;15.60;13.60;;;;;;5095610;28;20441;-71
2023/08/30 07:38:23;;;;;;;14.33;9.50;;;15.70;13.60;;;;;;5090468;28;20408;-71
2023/08/30 07:40:49;;;;;;;10.35;8.43;;;15.80;12.70;;;;;;5105909;28;20407;-71
2023/08/30 07:43:15;;;;;;;12.93;8.73;;;15.90;11.60;;;;;;5104371;28;20398;-71
2023/08/30 07:45:40;;;;;;;9.57;7.82;;;16.00;9.20;;;;;;5106702;28;20464;-71
2023/08/30 07:48:06;;;;;;;11.83;8.40;;;16.10;8.50;;;;;;5103646;28;20404;-71
2023/08/30 07:50:32;;;;;;;12.95;8.50;;;16.10;5.00;;;;;;5106374;28;20408;-71
2023/08/30 07:52:57;;;;;;;11.20;8.80;;;16.10;2.50;;;;;;5103554;28;20409;-71
2023/08/30 07:55:23;;;;;;;12.32;8.93;;;16.20;2.10;;;;;;5104998;28;20432;-72
2023/08/30 07:57:48;;;;;;;10.80;7.83;;;16.20;1.20;;;;;;5103218;28;20410;-72
2023/08/30 08:00:14;;;;;;;11.38;7.82;;;16.20;1.00;;;;;;5106185;28;20728;-72
2023/08/30 08:02:40;;;;;;;10.90;7.85;;;16.20;1.00;;;;;;5103146;28;20815;-71
2023/08/30 08:05:06;;;;;;;10.27;7.25;;;16.30;1.00;;;;;;5105736;28;20411;-72
2023/08/30 08:07:32;;;;;;;10.50;7.40;;;16.20;1.00;;;;;;5091451;28;20402;-72
2023/08/30 08:09:58;;;;;;;10.70;7.80;;;16.30;1.00;;;;;;5105107;28;20895;-72
2023/08/30 08:12:23;;;;;;;10.80;7.87;;;16.40;1.00;;;;;;5102991;28;20402;-72
2023/08/30 08:14:49;;;;;;;11.60;7.80;;;16.50;1.00;;;;;;5106089;28;20424;-72
2023/08/30 08:17:15;;;;;;;10.07;7.43;;;16.60;1.00;;;;;;5102481;28;20436;-72
2023/08/30 08:19:42;;;;;;;10.20;7.75;;;16.50;1.00;;;;;;5105723;28;20404;-71
2023/08/30 08:22:08;;;;;;;12.53;8.70;;;16.60;1.00;;;;;;5091816;28;20417;-72
2023/08/30 08:24:34;;;;;;;12.60;8.45;;;16.60;1.00;;;;;;5105371;28;20486;-72
2023/08/30 08:27:01;;;;;;;11.55;8.52;;;16.50;1.00;;;;;;5092056;28;20398;-72
2023/08/30 08:29:27;;;;;;;12.07;8.37;;;16.40;1.00;;;;;;5096860;28;20402;-71
2023/08/30 08:31:53;;;;;;;12.13;8.90;;;16.40;1.00;;;;;;5101186;28;20412;-71
2023/08/30 08:34:19;;;;;;;10.95;8.70;;;16.40;1.00;;;;;;5106171;28;20886;-72
2023/08/30 08:36:45;;;;;;;11.57;8.57;;;16.40;1.00;;;;;;5103694;28;20468;-72
2023/08/30 08:39:10;;;;;;;11.77;8.65;;;16.40;1.00;;;;;;5105811;28;20428;-71
2023/08/30 08:41:46;;;;;;;11.75;9.05;;;16.40;1.00;;;;;;5103320;28;20401;-71
2023/08/30 08:44:13;;;;;;;12.40;9.05;;;16.40;1.00;;;;;;5109910;28;20406;-71
2023/08/30 08:46:40;;;;;;;10.65;8.77;;;16.40;1.00;;;;;;5106533;28;20408;-72
2023/08/30 08:49:13;;;;;;;11.80;8.93;;;16.40;1.00;;;;;;5110617;28;20804;-71
2023/08/30 08:51:40;;;;;;;10.90;9.05;;;16.40;1.00;;;;;;5106545;28;20415;-71
2023/08/30 08:54:08;;;;;;;11.03;9.20;;;16.40;1.00;;;;;;5107817;28;20426;-71
2023/08/30 08:56:34;;;;;;;12.02;9.40;;;16.40;1.00;;;;;;5108440;28;20509;-71
2023/08/30 08:59:01;;;;;;;12.43;9.20;;;16.30;1.00;;;;;;5108001;28;20388;-71
2023/08/30 09:01:27;;;;;;;12.32;9.32;;;16.30;1.00;;;;;;5108825;28;20400;-71
2023/08/30 09:03:52;;;;;;;11.55;9.35;;;16.40;1.00;;;;;;5107321;28;20414;-72
2023/08/30 09:06:19;;;;;;;11.37;9.13;;;16.40;1.00;;;;;;5107056;28;20998;-72
2023/08/30 09:08:44;;;;;;;12.20;9.03;;;16.40;1.00;;;;;;5106648;28;20461;-72
2023/08/30 09:11:10;;;;;;;12.02;9.07;;;16.60;1.00;;;;;;5107692;28;21434;-71
2023/08/30 09:13:36;;;;;;;10.75;8.57;;;16.60;1.00;;;;;;5106579;28;20758;-72
2023/08/30 09:16:04;;;;;;;13.57;9.40;;;16.60;1.00;;;;;;5107290;28;20420;-71
2023/08/30 09:18:30;;;;;;;13.25;9.82;;;16.80;1.00;;;;;;5106185;27;20954;-72
2023/08/30 09:21:06;;;;;;;13.80;9.33;;;16.80;1.00;;;;;;5106980;28;20399;-72
2023/08/30 09:23:33;;;;;;;13.30;9.38;;;17.00;1.00;;;;;;5103961;28;20390;-71
2023/08/30 09:26:00;;;;;;;13.27;9.75;;;17.10;1.00;;;;;;5099791;28;20445;-72
2023/08/30 09:28:26;;;;;;;12.00;9.20;;;17.20;1.00;;;;;;5102788;28;20459;-72
2023/08/30 09:30:52;;;;;;;12.20;9.40;;;17.30;1.00;;;;;;5101935;28;20476;-72
2023/08/30 09:33:33;;;;;;;12.43;9.57;;;17.40;1.00;;;;;;5103910;28;20398;-72
2023/08/30 09:36:02;;;;;;;12.27;9.80;;;17.40;1.00;;;;;;5109345;28;20425;-71
2023/08/30 09:38:27;;;;;;;11.75;9.30;;;17.40;1.00;;;;;;5095563;28;20491;-72
2023/08/30 09:41:04;;;;;;;13.10;9.40;;;17.30;1.00;;;;;;5108915;28;20483;-72
2023/08/30 09:43:31;;;;;;;13.27;9.68;;;17.30;1.00;;;;;;5105180;28;20484;-71
2023/08/30 09:45:57;;;;;;;12.05;9.55;;;17.30;1.00;;;;;;5105750;28;20404;-71
2023/08/30 09:48:28;;;;;;;12.50;9.52;;;17.30;1.00;;;;;;5095125;28;20936;-72
2023/08/30 09:50:54;;;;;;;12.63;9.57;;;17.30;1.00;;;;;;5106378;28;20405;-72
2023/08/30 09:53:23;;;;;;;14.03;9.73;;;17.30;1.00;;;;;;5106878;28;20419;-71
2023/08/30 09:55:51;;;;;;;13.45;9.63;;;17.30;1.00;;;;;;5094649;28;20461;-71
2023/08/30 09:58:17;;;;;;;10.77;8.57;;;17.30;1.00;;;;;;5085278;28;20417;-71
2023/08/30 10:00:43;;;;;;;10.73;7.85;;;17.30;1.00;;;;;;5094175;28;20476;-72
2023/08/30 10:03:09;;;;;;;10.13;7.13;;;17.30;1.00;;;;;;5107772;28;20411;-71
2023/08/30 10:05:36;;;;;;;10.40;7.20;;;17.20;1.00;;;;;;5104117;28;20401;-71
2023/08/30 10:08:03;;;;;;;9.65;7.10;;;17.20;1.00;;;;;;5104301;28;20415;-72
2023/08/30 10:10:31;;;;;;;9.88;6.63;;;17.20;1.00;;;;;;5093217;28;20432;-71
2023/08/30 10:12:57;;;;;;;9.50;6.95;;;17.20;1.00;;;;;;5096056;28;20770;-71
2023/08/30 10:15:26;;;;;;;10.17;7.27;;;17.20;1.00;;;;;;5102840;28;20426;-71
2023/08/30 10:17:54;;;;;;;14.57;6.67;;;17.20;1.00;;;;;;5105731;28;20407;-71
2023/08/30 10:20:20;;;;;;;8.00;5.93;;;17.20;1.00;;;;;;5102569;28;20417;-71
2023/08/30 10:22:48;;;;;;;8.43;5.85;;;17.10;1.00;;;;;;5105264;28;20389;-71
2023/08/30 10:25:19;;;;;;;9.85;6.20;;;17.00;1.00;;;;;;5089634;28;20789;-71
2023/08/30 10:27:47;;;;;;;7.78;5.82;;;17.00;1.00;;;;;;5089130;28;20406;-71
2023/08/30 10:30:14;;;;;;;10.38;6.93;;;16.90;1.00;;;;;;5100363;28;20892;-71
2023/08/30 10:32:44;;;;;;;9.43;6.97;;;16.80;1.00;;;;;;5089108;28;20437;-71
2023/08/30 10:35:14;;;;;;;9.60;6.90;;;16.90;1.00;;;;;;5091652;28;20424;-71
2023/08/30 10:37:40;;;;;;;9.10;7.20;;;16.80;1.00;;;;;;5107172;28;20538;-72
2023/08/30 10:40:07;;;;;;;9.10;7.38;;;16.90;1.00;;;;;;5100888;28;20496;-71
2023/08/30 10:42:32;;;;;;;10.48;8.07;;;17.10;1.00;;;;;;5088854;28;20891;-71
2023/08/30 10:45:07;;;;;;;10.35;7.70;;;17.20;1.00;;;;;;5100135;28;20409;-72
2023/08/30 10:47:37;;;;;;;10.23;7.72;;;17.30;1.00;;;;;;5088753;28;20401;-71
2023/08/30 10:50:10;;;;;;;9.75;7.25;;;17.30;1.00;;;;;;5105740;28;20753;-71
2023/08/30 10:52:36;;;;;;;11.43;7.80;;;17.40;1.00;;;;;;5103888;28;20793;-71
2023/08/30 10:55:22;;;;;;;9.95;7.82;;;17.50;1.00;;;;;;5105034;28;20481;-71
2023/08/30 10:57:59;;;;;;;9.93;7.25;;;17.70;1.00;;;;;;5101794;28;20923;-71
2023/08/30 11:00:25;;;;;;;9.73;7.40;;;17.80;1.00;;;;;;5106426;28;20423;-71
2023/08/30 11:02:51;;;;;;;11.35;7.53;;;17.90;1.00;;;;;;5102141;28;20441;-71
2023/08/30 11:05:18;;;;;;;11.07;7.60;;;18.00;1.00;;;;;;5104373;28;20471;-72
2023/08/30 11:07:45;;;;;;;10.68;7.53;;;18.00;1.00;;;;;;5098327;28;20948;-71
2023/08/30 11:10:11;;;;;;;9.50;7.50;;;18.10;1.00;;;;;;5098597;28;20421;-71
2023/08/30 11:12:36;;;;;;;9.27;7.35;;;18.10;1.00;;;;;;5102461;28;20933;-71
2023/08/30 11:15:04;;;;;;;9.57;6.53;;;18.10;1.00;;;;;;5104148;28;20408;-72
2023/08/30 11:17:29;;;;;;;6.78;4.70;;;18.10;1.00;;;;;;5101955;28;20404;-71
2023/08/30 11:20:16;;;;;;;5.57;3.97;;;18.10;1.00;;;;;;5103919;28;20486;-71
2023/08/30 11:22:43;;;;;;;7.43;5.18;;;18.20;1.00;;;;;;5103562;28;20413;-71
2023/08/30 11:25:10;;;;;;;8.00;5.70;;;18.20;1.00;;;;;;5099315;28;20406;-72
2023/08/30 11:27:37;;;;;;;6.93;5.50;;;18.20;1.00;;;;;;5095547;28;20909;-71
2023/08/30 11:30:05;;;;;;;7.65;5.50;;;18.20;1.00;;;;;;5104280;28;20402;-71
2023/08/30 11:32:38;;;;;;;7.00;5.60;;;18.30;1.00;;;;;;5106138;28;20415;-71
2023/08/30 11:35:05;;;;;;;6.95;5.15;;;18.40;1.00;;;;;;5099627;28;20418;-71
2023/08/30 11:37:31;;;;;;;6.90;5.07;;;18.50;1.00;;;;;;5096628;28;20734;-71
2023/08/30 11:39:58;;;;;;;4.82;2.80;;;18.50;1.00;;;;;;5103663;28;20401;-71
2023/08/30 11:42:24;;;;;;;4.10;2.50;;;18.50;1.00;;;;;;5106025;28;20423;-71
2023/08/30 11:44:51;;;;;;;3.83;2.22;;;18.50;1.00;;;;;;5103666;28;20405;-71
2023/08/30 11:47:22;;;;;;;3.75;2.10;;;18.40;1.00;;;;;;5105673;28;20404;-71
2023/08/30 11:49:50;;;;;;;3.30;2.22;;;18.40;1.00;;;;;;5100716;28;20402;-71
2023/08/30 11:52:17;;;;;;;4.20;2.65;;;18.30;1.00;;;;;;5098459;28;20541;-71
2023/08/30 11:54:44;;;;;;;4.40;2.90;;;18.20;1.00;;;;;;5102706;28;20397;-72
2023/08/30 11:57:10;;;;;;;5.45;3.40;;;18.20;1.00;;;;;;5105839;28;20439;-71
2023/08/30 11:59:36;;;;;;;5.25;3.88;;;18.30;1.00;;;;;;5103348;28;20397;-72
2023/08/30 12:02:03;;;;;;;6.95;4.57;;;18.30;1.00;;;;;;5105544;28;20526;-72
2023/08/30 12:04:30;;;;;;;6.28;4.00;;;18.40;1.00;;;;;;5091756;28;20855;-72
2023/08/30 12:06:56;;;;;;;5.70;3.50;;;18.50;1.00;;;;;;5105220;28;20402;-71
2023/08/30 12:09:22;;;;;;;4.40;3.10;;;18.50;1.00;;;;;;5101797;28;20777;-72
2023/08/30 12:11:50;;;;;;;3.87;2.63;;;18.50;1.00;;;;;;5104809;28;20400;-72
2023/08/30 12:14:16;;;;;;;4.78;3.28;;;18.40;1.00;;;;;;5100434;28;20405;-71
2023/08/30 12:16:43;;;;;;;6.35;3.88;;;18.40;1.00;;;;;;5103269;28;20431;-71
2023/08/30 12:19:12;;;;;;;6.18;3.85;;;18.30;1.00;;;;;;5090835;28;20475;-71
2023/08/30 12:21:47;;;;;;;5.72;3.97;;;18.20;1.00;;;;;;5102850;28;20401;-71
2023/08/30 12:24:12;;;;;;;5.40;3.83;;;18.10;1.00;;;;;;5101256;28;20396;-71
2023/08/30 12:26:38;;;;;;;7.77;4.97;;;18.10;1.00;;;;;;5092224;28;20409;-71
2023/08/30 12:29:06;;;;;;;7.07;5.63;;;18.00;1.00;;;;;;5105893;28;20400;-71
2023/08/30 12:31:33;;;;;;;7.50;6.60;;;18.00;1.00;;;;;;5104392;28;20492;-71
2023/08/30 12:33:58;;;;;;;8.70;6.60;;;17.90;1.00;;;;;;5099494;28;20406;-71